หน้าหลัก
METAR-TAF:

METAR-TAF

ท่าอากาศยาน :

มานากัว, นิการากัว

ละติจูด: 12-09N, ลองจิจูด: 086-10W, ความสูง: 50 ม.

การสังเกตสภาพอากาศปัจจุบัน

รายงานได้ทำขึ้นเมื่อ 36 นาทีที่แล้ว ณ เวลา 23:00 UTC
ลม 4 นอตจากตะวันออกเฉียงใต้
อุณหภูมิ 34°C
ความชื้น 50%
ความกดอากาศ 1008 hPa
ทัศนวิสัย 10 กม. หรือมากกว่า
มีเมฆน้อยที่ความสูง 2300 ฟุต

METAR: MNMG 242300Z 13004KT 9999 FEW023 34/22 Q1007 A2976 NOSIG

เวลา: 17:36 (23:36 UTC)

การพยากรณ์

รายงานได้ทำขึ้นเมื่อ 2 ชั่วโมงและ 36 นาทีที่แล้ว ณ เวลา 21:00 UTC
การพยากรณ์มีผลตั้งแต่วันที่ 25 ณ เวลา 00 UTC จนถึงวันที่ 25 ณ เวลา 24 UTC
ลม 6 นอตจากตะวันออก/ตะวันออกเฉียงใต้
ทัศนวิสัย 10 กม. หรือมากกว่า
มีเมฆกระจายเป็นบางส่วนที่ความสูง 2200 ฟุต
ชั่วคราว
ตั้งแต่วันที่ 25 ณ เวลา 03 UTC จนถึงวันที่ 25 ณ เวลา 08 UTC
ทัศนวิสัย: 6000 ม.
มีเมฆน้อยที่ความสูง 2200 ฟุต, คิวมูโลนิมบัส.
พายุฝนฟ้าคะนอง, ฝน
กำลังกลายเป็น
ตั้งแต่วันที่ 25 ณ เวลา 13 UTC จนถึงวันที่ 25 ณ เวลา 15 UTC
ลม 12 นอตจากตะวันออก

TAF: MNMG 242100Z 2500/2524 11006KT 9999 SCT022 TEMPO 2503/2508 6000 TSRA FEW022CB BECMG 2513/2515 09012KT

สังเกตการณ์สภาพอากาศและพยากรณ์อากาศของสนามบินมากกว่า 4000 แห่ง (รายงาน METAR และ TAF).

สถานีที่ดูได้จะแสดงไว้ด้วยจุดสีเหลืองและสีแดงบนแผนที่.

เลื่อนเมาส์ไปเหนือจุดเพื่อดูชื่อสถานี.

แล้วคลิกเพื่อดูสังเกตการณ์และการพยากรณ์สภาพอากาศ.

ในการเปลี่ยนแผนที่: คลิกที่ปุ่มสีเขียวที่มีกากบาทสีดำเพื่อซูมเข้า; ที่ปุ่มสีเขียวที่มีขีดเพื่อซูมออก; หรือที่ลูกศรสีเขียวเพื่อไปยังแผนที่ที่อยู่ติดกัน.


METAR-TAF: